createdAt,value
2022-11-10T00:01:00.855Z,208.10
2022-11-10T00:03:30.260Z,209.49
2022-11-10T00:05:55.155Z,213.11
2022-11-10T00:08:21.437Z,227.41
2022-11-10T00:11:02.363Z,229.33
2022-11-10T00:13:36.631Z,235.50
2022-11-10T00:16:20.522Z,238.49
2022-11-10T00:18:49.363Z,249.86
2022-11-10T00:21:16.776Z,245.25
2022-11-10T00:23:42.748Z,250.76
2022-11-10T00:26:17.316Z,241.91
2022-11-10T00:28:45.754Z,240.79
2022-11-10T00:31:15.309Z,241.49
2022-11-10T00:33:41.743Z,240.80
2022-11-10T00:36:07.871Z,238.60
2022-11-10T00:38:33.795Z,236.71
2022-11-10T00:40:59.104Z,245.04
2022-11-10T00:43:26.713Z,257.52
2022-11-10T00:45:56.428Z,247.25
2022-11-10T00:48:21.939Z,238.11
2022-11-10T00:50:47.041Z,251.21
2022-11-10T00:53:13.023Z,251.31
2022-11-10T00:55:40.517Z,242.16
2022-11-10T00:58:05.682Z,241.84
2022-11-10T01:00:31.549Z,233.95
2022-11-10T01:02:59.677Z,231.79
2022-11-10T01:05:25.594Z,226.61
2022-11-10T01:07:52.185Z,219.47
2022-11-10T01:10:17.441Z,208.28
2022-11-10T01:12:42.535Z,217.84
2022-11-10T01:15:09.736Z,220.61
2022-11-10T01:17:35.209Z,225.31
2022-11-10T01:20:02.868Z,228.49
2022-11-10T01:22:28.586Z,226.93
2022-11-10T01:24:53.790Z,227.78
2022-11-10T01:27:18.940Z,216.05
2022-11-10T01:29:44.761Z,225.04
2022-11-10T01:32:09.559Z,220.94
2022-11-10T01:34:34.547Z,217.40
2022-11-10T01:37:02.896Z,223.33
2022-11-10T01:39:28.906Z,222.75
2022-11-10T01:41:53.759Z,228.82
2022-11-10T01:44:25.008Z,225.69
2022-11-10T01:46:50.369Z,219.76
2022-11-10T01:49:18.999Z,217.53
2022-11-10T01:51:54.134Z,221.62
2022-11-10T01:54:29.730Z,226.32
2022-11-10T01:57:03.438Z,232.68
2022-11-10T01:59:33.711Z,241.37
2022-11-10T02:02:13.046Z,230.50
2022-11-10T02:04:40.398Z,242.39
2022-11-10T02:07:06.385Z,236.06
2022-11-10T02:09:34.242Z,230.92
2022-11-10T02:12:01.097Z,236.30
2022-11-10T02:14:30.905Z,239.81
2022-11-10T02:16:56.363Z,232.63
2022-11-10T02:19:25.463Z,239.42
2022-11-10T02:21:55.276Z,236.86
2022-11-10T02:24:21.965Z,234.91
2022-11-10T02:26:54.101Z,237.15
2022-11-10T02:29:20.518Z,234.07
2022-11-10T02:31:46.026Z,240.00
2022-11-10T02:34:10.781Z,230.36
2022-11-10T02:36:37.466Z,227.91
2022-11-10T02:39:05.790Z,229.63
2022-11-10T02:41:33.763Z,230.99
2022-11-10T02:44:07.415Z,229.79
2022-11-10T02:46:32.823Z,221.68
2022-11-10T02:49:01.359Z,224.31
2022-11-10T02:51:26.304Z,227.98
2022-11-10T02:53:51.509Z,224.96
2022-11-10T02:56:22.391Z,221.61
2022-11-10T02:58:47.357Z,228.91
2022-11-10T03:01:12.474Z,228.46
2022-11-10T03:03:39.189Z,238.34
2022-11-10T03:06:04.142Z,234.33
2022-11-10T03:08:29.365Z,238.59
2022-11-10T03:10:58.700Z,243.29
2022-11-10T03:13:35.649Z,245.78
2022-11-10T03:16:13.175Z,258.64
2022-11-10T03:18:37.762Z,263.20
2022-11-10T03:21:02.604Z,256.68
2022-11-10T03:23:28.488Z,255.58
2022-11-10T03:25:53.800Z,256.66
2022-11-10T03:28:20.323Z,255.57
2022-11-10T03:30:49.335Z,251.69
2022-11-10T03:33:16.419Z,245.82
2022-11-10T03:35:41.459Z,256.07
2022-11-10T03:38:07.856Z,259.67
2022-11-10T03:40:56.854Z,256.31
2022-11-10T03:43:18.984Z,258.10
2022-11-10T03:45:49.227Z,262.20
2022-11-10T03:48:14.237Z,267.08
2022-11-10T03:50:39.493Z,272.53
2022-11-10T03:53:06.577Z,280.52
2022-11-10T03:55:32.041Z,289.51
2022-11-10T03:57:59.612Z,291.60
2022-11-10T04:00:25.407Z,287.88
2022-11-10T04:02:53.135Z,273.86
2022-11-10T04:05:30.382Z,282.65
2022-11-10T04:08:14.323Z,279.83
2022-11-10T04:10:40.454Z,262.17
2022-11-10T04:13:18.793Z,261.23
2022-11-10T04:15:46.888Z,257.82
2022-11-10T04:18:24.936Z,259.76
2022-11-10T04:20:50.606Z,259.79
2022-11-10T04:23:29.380Z,263.28
2022-11-10T04:26:06.418Z,275.73
2022-11-10T04:28:33.008Z,273.00
2022-11-10T04:31:00.504Z,272.67
2022-11-10T04:33:28.064Z,283.03
2022-11-10T04:35:54.048Z,267.36
2022-11-10T04:38:19.290Z,280.78
2022-11-10T04:40:46.399Z,279.50
2022-11-10T04:43:15.033Z,265.68
2022-11-10T04:45:39.932Z,268.41
2022-11-10T04:48:04.825Z,269.75
2022-11-10T04:50:33.564Z,262.13
2022-11-10T04:52:58.732Z,270.84
2022-11-10T04:55:25.154Z,267.76
2022-11-10T04:57:51.392Z,271.60
2022-11-10T05:00:18.894Z,264.55
2022-11-10T05:02:44.198Z,275.37
2022-11-10T05:05:11.964Z,265.40
2022-11-10T05:07:39.421Z,266.25
2022-11-10T05:10:04.167Z,270.12
2022-11-10T05:12:30.296Z,267.04
2022-11-10T05:14:56.319Z,280.58
2022-11-10T05:17:24.338Z,263.15
2022-11-10T05:19:51.439Z,260.75
2022-11-10T05:22:17.166Z,259.49
2022-11-10T05:24:44.928Z,271.60
2022-11-10T05:27:11.450Z,293.93
2022-11-10T05:29:36.405Z,313.19
2022-11-10T05:32:01.566Z,309.05
2022-11-10T05:34:27.433Z,299.18
2022-11-10T05:36:53.971Z,297.09
2022-11-10T05:39:18.764Z,273.76
2022-11-10T05:41:48.076Z,268.46
2022-11-10T05:44:13.019Z,268.40
2022-11-10T05:46:37.709Z,264.18
2022-11-10T05:49:03.535Z,263.35
2022-11-10T05:51:28.790Z,271.06
2022-11-10T05:53:53.790Z,274.18
2022-11-10T05:56:19.920Z,284.18
2022-11-10T05:58:47.625Z,269.67
2022-11-10T06:01:12.826Z,276.04
2022-11-10T06:03:39.018Z,270.71
2022-11-10T06:06:03.903Z,268.16
2022-11-10T06:08:35.202Z,262.33
2022-11-10T06:11:09.013Z,265.55
2022-11-10T06:13:34.612Z,262.67
2022-11-10T06:16:03.611Z,259.14
2022-11-10T06:18:29.799Z,262.72
2022-11-10T06:20:55.352Z,267.35
2022-11-10T06:23:21.206Z,264.45
2022-11-10T06:25:47.725Z,266.45
2022-11-10T06:28:15.061Z,263.61
2022-11-10T06:30:42.227Z,272.44
2022-11-10T06:33:10.969Z,260.41
2022-11-10T06:35:36.433Z,266.59
2022-11-10T06:38:03.513Z,269.58
2022-11-10T06:40:29.649Z,266.90
2022-11-10T06:42:57.987Z,266.77
2022-11-10T06:45:28.722Z,269.19
2022-11-10T06:48:10.800Z,279.88
2022-11-10T06:50:39.259Z,279.06
2022-11-10T06:53:05.330Z,282.39
2022-11-10T06:55:30.690Z,278.75
2022-11-10T06:57:55.735Z,289.79
2022-11-10T07:00:24.171Z,286.13
2022-11-10T07:02:49.165Z,287.21
2022-11-10T07:05:19.839Z,284.75
2022-11-10T07:07:48.131Z,281.73
2022-11-10T07:10:13.395Z,280.17
2022-11-10T07:12:38.345Z,275.70
2022-11-10T07:15:04.209Z,268.20
2022-11-10T07:17:28.700Z,279.60
2022-11-10T07:19:53.698Z,276.86
2022-11-10T07:22:20.037Z,288.68
2022-11-10T07:24:47.553Z,278.37
2022-11-10T07:27:12.483Z,270.35
2022-11-10T07:29:48.136Z,262.11
2022-11-10T07:32:12.778Z,261.01
2022-11-10T07:34:44.686Z,271.52
2022-11-10T07:37:10.211Z,291.27
2022-11-10T07:39:35.211Z,303.75
2022-11-10T07:42:03.695Z,312.10
2022-11-10T07:44:28.741Z,353.60
2022-11-10T07:46:53.649Z,401.65
2022-11-10T07:49:19.221Z,375.36
2022-11-10T07:51:46.213Z,333.59
2022-11-10T07:54:11.018Z,301.32
2022-11-10T07:56:42.720Z,304.22
2022-11-10T07:59:14.975Z,300.94
2022-11-10T08:01:40.686Z,317.55
2022-11-10T08:04:05.387Z,332.56
2022-11-10T08:06:34.904Z,308.32
2022-11-10T08:09:04.920Z,307.07
2022-11-10T08:11:32.740Z,300.96
2022-11-10T08:14:00.630Z,298.72
2022-11-10T08:16:42.312Z,322.70
2022-11-10T08:19:20.289Z,313.90
2022-11-10T08:21:46.221Z,285.36
2022-11-10T08:24:17.146Z,267.03
2022-11-10T08:26:45.602Z,260.93
2022-11-10T08:29:10.241Z,261.59
2022-11-10T08:31:38.184Z,284.20
2022-11-10T08:34:07.856Z,270.80
2022-11-10T08:36:32.713Z,267.94
2022-11-10T08:39:00.050Z,268.06
2022-11-10T08:41:44.715Z,278.80
2022-11-10T08:44:19.601Z,281.67
2022-11-10T08:46:53.939Z,288.56
2022-11-10T08:49:23.342Z,307.59
2022-11-10T08:51:48.135Z,282.28
2022-11-10T08:54:14.116Z,278.08
2022-11-10T08:56:39.107Z,281.67
2022-11-10T08:59:03.787Z,317.41
2022-11-10T09:01:29.781Z,314.17
2022-11-10T09:03:54.575Z,306.01
2022-11-10T09:06:31.556Z,292.36
2022-11-10T09:08:56.660Z,290.39
2022-11-10T09:11:21.296Z,295.94
2022-11-10T09:13:45.863Z,283.33
2022-11-10T09:16:12.060Z,292.01
2022-11-10T09:18:36.958Z,281.71
2022-11-10T09:21:05.217Z,287.44
2022-11-10T09:24:08.540Z,299.26
2022-11-10T09:26:36.608Z,304.86
2022-11-10T09:29:01.926Z,315.26
2022-11-10T09:31:26.682Z,308.65
2022-11-10T09:34:08.613Z,282.92
2022-11-10T09:36:36.327Z,289.67
2022-11-10T09:39:01.386Z,292.08
2022-11-10T09:41:30.117Z,313.85
2022-11-10T09:44:14.781Z,309.45
2022-11-10T09:46:49.048Z,299.07
2022-11-10T09:49:39.801Z,375.33
2022-11-10T09:52:12.177Z,404.79
2022-11-10T09:55:02.117Z,364.01
2022-11-10T09:57:30.176Z,309.85
2022-11-10T09:59:59.217Z,298.37
2022-11-10T10:02:40.770Z,313.75
2022-11-10T10:05:51.863Z,327.96
2022-11-10T10:08:35.593Z,319.34
2022-11-10T10:11:26.861Z,287.99
2022-11-10T10:14:27.911Z,310.46
2022-11-10T10:17:07.498Z,286.87
2022-11-10T10:19:58.256Z,281.34
2022-11-10T10:22:54.226Z,290.10
2022-11-10T10:25:32.598Z,351.82
2022-11-10T10:28:15.482Z,306.51
2022-11-10T10:30:40.461Z,333.58
2022-11-10T10:33:20.210Z,345.70
2022-11-10T10:35:54.468Z,333.27
2022-11-10T10:38:29.822Z,323.57
2022-11-10T10:41:00.410Z,240.87
2022-11-10T10:43:27.506Z,252.12
2022-11-10T10:46:10.887Z,262.50
2022-11-10T10:48:47.789Z,274.08
2022-11-10T10:51:33.613Z,273.15
2022-11-10T10:54:00.193Z,247.94
2022-11-10T10:56:35.086Z,268.13
2022-11-10T10:59:09.439Z,253.46
2022-11-10T11:01:37.382Z,256.41
2022-11-10T11:04:30.471Z,255.40
2022-11-10T11:07:02.765Z,246.68
2022-11-10T11:09:33.011Z,227.25
2022-11-10T11:12:09.889Z,228.94
2022-11-10T11:14:40.627Z,225.39
2022-11-10T11:17:23.321Z,220.49
2022-11-10T11:20:02.538Z,212.40
2022-11-10T11:23:02.558Z,201.91
2022-11-10T11:25:42.816Z,207.97
2022-11-10T11:28:31.726Z,219.11
2022-11-10T11:31:18.858Z,216.10
2022-11-10T11:33:56.702Z,220.43
2022-11-10T11:36:45.826Z,219.94
2022-11-10T11:39:36.614Z,206.47
2022-11-10T11:42:49.033Z,193.06
2022-11-10T11:45:27.670Z,188.19
2022-11-10T11:48:29.780Z,199.09
2022-11-10T11:51:36.510Z,195.50
2022-11-10T11:54:36.476Z,163.34
2022-11-10T11:57:24.116Z,163.63
2022-11-10T12:00:09.788Z,141.18
2022-11-10T12:03:07.882Z,138.17
2022-11-10T12:05:49.253Z,137.75
2022-11-10T12:08:31.471Z,138.98
2022-11-10T12:11:16.171Z,129.56
2022-11-10T12:13:55.404Z,128.83
2022-11-10T12:16:29.165Z,123.23
2022-11-10T12:19:19.152Z,130.83
2022-11-10T12:21:57.264Z,119.91
2022-11-10T12:24:54.154Z,119.95
2022-11-10T12:27:36.371Z,123.34
2022-11-10T12:30:12.984Z,119.03
2022-11-10T12:32:57.900Z,119.52
2022-11-10T12:35:29.501Z,124.73
2022-11-10T12:38:06.959Z,99.72
2022-11-10T12:40:42.151Z,91.08
2022-11-10T12:43:26.801Z,100.07
2022-11-10T12:46:00.871Z,107.23
2022-11-10T12:48:46.190Z,102.77
2022-11-10T12:51:25.832Z,110.04
2022-11-10T12:53:56.528Z,102.46
2022-11-10T12:56:32.475Z,94.82
2022-11-10T12:59:35.263Z,89.82
2022-11-10T13:02:14.403Z,88.70
2022-11-10T13:04:50.766Z,85.32
2022-11-10T13:07:17.171Z,77.62
2022-11-10T13:09:47.421Z,87.99
2022-11-10T13:12:32.383Z,85.79
2022-11-10T13:15:00.421Z,84.44
2022-11-10T13:17:58.479Z,109.61
2022-11-10T13:20:56.156Z,142.08
2022-11-10T13:23:36.099Z,143.25
2022-11-10T13:26:05.981Z,227.16
2022-11-10T13:29:23.863Z,316.74
2022-11-10T13:31:59.977Z,308.31
2022-11-10T13:34:35.530Z,285.50
2022-11-10T13:37:02.426Z,170.51
2022-11-10T13:39:53.029Z,115.60
2022-11-10T13:42:32.292Z,95.18
2022-11-10T13:45:21.732Z,98.13
2022-11-10T13:48:10.632Z,135.07
2022-11-10T13:50:57.301Z,144.93
2022-11-10T13:53:46.366Z,112.68
2022-11-10T13:56:41.624Z,152.30
2022-11-10T13:59:27.973Z,194.76
2022-11-10T14:01:53.030Z,113.69
2022-11-10T14:04:49.165Z,97.51
2022-11-10T14:07:22.864Z,83.70
2022-11-10T14:09:53.646Z,67.88
2022-11-10T14:12:34.369Z,76.57
2022-11-10T14:15:08.175Z,76.31
2022-11-10T14:17:42.952Z,70.06
2022-11-10T14:20:37.969Z,82.24
2022-11-10T14:23:32.233Z,79.56
2022-11-10T14:26:05.612Z,104.21
2022-11-10T14:28:33.836Z,143.64
2022-11-10T14:31:01.891Z,150.95
2022-11-10T14:33:29.812Z,148.44
2022-11-10T14:36:10.423Z,137.96
2022-11-10T14:38:37.478Z,283.66
2022-11-10T14:41:07.498Z,237.76
2022-11-10T14:43:35.833Z,235.93
2022-11-10T14:46:05.176Z,248.95
2022-11-10T14:48:36.773Z,267.93
2022-11-10T14:51:16.270Z,340.25
2022-11-10T14:53:51.925Z,263.81
2022-11-10T14:56:27.051Z,252.27
2022-11-10T14:58:54.466Z,256.27
2022-11-10T15:01:33.960Z,283.03
2022-11-10T15:04:00.438Z,250.40
2022-11-10T15:06:30.139Z,242.66
2022-11-10T15:08:55.097Z,269.31
2022-11-10T15:11:42.781Z,281.59
2022-11-10T15:14:39.837Z,280.29
2022-11-10T15:17:05.037Z,285.84
2022-11-10T15:19:35.260Z,309.03
2022-11-10T15:22:16.288Z,309.60
2022-11-10T15:24:45.746Z,271.11
2022-11-10T15:27:25.703Z,268.85
2022-11-10T15:29:51.308Z,281.99
2022-11-10T15:32:23.114Z,288.11
2022-11-10T15:34:49.914Z,290.69
2022-11-10T15:37:31.676Z,291.63
2022-11-10T15:40:33.313Z,284.74
2022-11-10T15:43:12.492Z,312.75
2022-11-10T15:45:37.072Z,309.40
2022-11-10T15:48:03.107Z,306.07
2022-11-10T15:50:28.008Z,338.15
2022-11-10T15:52:56.081Z,356.51
2022-11-10T15:55:26.564Z,390.01
2022-11-10T15:57:51.289Z,426.51
2022-11-10T16:00:19.485Z,359.15
2022-11-10T16:02:46.537Z,352.00
2022-11-10T16:05:16.085Z,410.78
2022-11-10T16:07:44.872Z,440.89
2022-11-10T16:10:12.795Z,455.12
2022-11-10T16:12:39.330Z,459.00
2022-11-10T16:15:06.591Z,459.52
2022-11-10T16:17:31.688Z,401.18
2022-11-10T16:19:56.844Z,362.53
2022-11-10T16:22:22.871Z,352.15
2022-11-10T16:24:47.962Z,344.89
2022-11-10T16:27:18.799Z,301.03
2022-11-10T16:29:46.304Z,304.05
2022-11-10T16:32:13.979Z,306.24
2022-11-10T16:34:39.036Z,308.11
2022-11-10T16:37:05.263Z,297.85
2022-11-10T16:39:30.666Z,307.90
2022-11-10T16:41:55.720Z,312.03
2022-11-10T16:44:25.478Z,311.67
2022-11-10T16:46:57.652Z,314.58
2022-11-10T16:49:34.472Z,319.24
2022-11-10T16:51:59.532Z,335.96
2022-11-10T16:54:25.087Z,356.65
2022-11-10T16:56:50.192Z,378.34
2022-11-10T16:59:15.089Z,388.71
2022-11-10T17:01:47.515Z,390.13
2022-11-10T17:04:16.878Z,398.67
2022-11-10T17:06:43.724Z,423.08
2022-11-10T17:09:18.760Z,425.36
2022-11-10T17:11:44.669Z,427.44
2022-11-10T17:14:10.126Z,461.00
2022-11-10T17:16:39.220Z,519.32
2022-11-10T17:19:10.981Z,508.46
2022-11-10T17:21:39.937Z,488.76
2022-11-10T17:24:08.084Z,485.19
2022-11-10T17:26:34.538Z,468.53
2022-11-10T17:28:59.444Z,458.21
2022-11-10T17:31:25.047Z,426.56
2022-11-10T17:33:49.785Z,474.92
2022-11-10T17:36:24.322Z,449.26
2022-11-10T17:38:50.294Z,474.86
2022-11-10T17:41:20.920Z,494.04
2022-11-10T17:43:46.310Z,491.49
2022-11-10T17:46:12.516Z,526.42
2022-11-10T17:48:48.031Z,557.45
2022-11-10T17:51:26.067Z,560.54
2022-11-10T17:53:52.192Z,544.57
2022-11-10T17:56:18.468Z,545.83
2022-11-10T17:58:43.628Z,580.54
2022-11-10T18:01:17.745Z,585.61
2022-11-10T18:03:46.247Z,621.07
2022-11-10T18:06:11.855Z,635.63
2022-11-10T18:08:39.744Z,656.58
2022-11-10T18:11:05.476Z,565.56
2022-11-10T18:13:30.267Z,500.28
2022-11-10T18:16:01.717Z,494.66
2022-11-10T18:18:27.695Z,440.82
2022-11-10T18:20:54.331Z,415.42
2022-11-10T18:23:19.443Z,395.38
2022-11-10T18:25:47.556Z,402.22
2022-11-10T18:28:17.331Z,394.09
2022-11-10T18:30:42.881Z,393.10
2022-11-10T18:33:10.390Z,385.37
2022-11-10T18:35:38.720Z,374.76
2022-11-10T18:38:03.364Z,376.41
2022-11-10T18:40:28.824Z,378.99
2022-11-10T18:43:07.140Z,369.51
2022-11-10T18:45:33.174Z,373.97
2022-11-10T18:48:03.239Z,367.71
2022-11-10T18:50:27.920Z,380.37
2022-11-10T18:52:53.635Z,362.15
2022-11-10T18:55:20.383Z,329.68
2022-11-10T18:57:45.217Z,295.11
2022-11-10T19:00:19.094Z,307.17
2022-11-10T19:02:46.386Z,270.89
2022-11-10T19:05:12.977Z,255.30
2022-11-10T19:07:37.623Z,239.78
2022-11-10T19:10:02.912Z,221.26
2022-11-10T19:12:28.841Z,223.37
2022-11-10T19:14:54.249Z,211.89
2022-11-10T19:17:22.225Z,221.02
2022-11-10T19:19:52.047Z,229.51
2022-11-10T19:22:20.573Z,239.74
2022-11-10T19:25:06.612Z,220.24
2022-11-10T19:27:31.768Z,222.38
2022-11-10T19:29:56.680Z,224.01
2022-11-10T19:32:25.160Z,206.13
2022-11-10T19:34:50.460Z,201.14
2022-11-10T19:37:21.340Z,211.22
2022-11-10T19:39:46.299Z,195.57
2022-11-10T19:42:12.025Z,187.94
2022-11-10T19:44:37.526Z,193.48
2022-11-10T19:47:02.772Z,186.15
2022-11-10T19:49:31.008Z,192.47
2022-11-10T19:51:55.906Z,181.90
2022-11-10T19:54:20.543Z,182.73
2022-11-10T19:56:46.352Z,187.79
2022-11-10T19:59:13.166Z,192.94
2022-11-10T20:01:38.266Z,211.70
2022-11-10T20:04:06.219Z,259.08
2022-11-10T20:06:34.991Z,315.14
2022-11-10T20:09:00.841Z,340.73
2022-11-10T20:11:29.836Z,423.31
2022-11-10T20:13:59.558Z,479.56
2022-11-10T20:16:25.582Z,580.43
2022-11-10T20:18:51.298Z,684.00
2022-11-10T20:21:21.253Z,690.67
2022-11-10T20:23:48.904Z,657.38
2022-11-10T20:26:17.705Z,613.03
2022-11-10T20:28:44.118Z,561.22
2022-11-10T20:31:13.004Z,512.72
2022-11-10T20:33:41.579Z,501.62
2022-11-10T20:36:20.780Z,451.79
2022-11-10T20:38:54.230Z,473.48
2022-11-10T20:41:23.013Z,480.30
2022-11-10T20:43:49.389Z,509.53
2022-11-10T20:49:12.654Z,508.89
2022-11-10T20:51:40.291Z,521.22
2022-11-10T20:54:07.494Z,528.24
2022-11-10T20:56:33.011Z,526.10
2022-11-10T20:58:57.224Z,537.15
2022-11-10T21:01:36.665Z,547.64
2022-11-10T21:04:11.138Z,544.98
2022-11-10T21:06:35.394Z,525.90
2022-11-10T21:08:59.868Z,514.07
2022-11-10T21:11:54.549Z,518.47
2022-11-10T21:14:18.923Z,515.44
2022-11-10T21:16:44.379Z,505.59
2022-11-10T21:19:13.994Z,500.96
2022-11-10T21:21:38.549Z,499.39
2022-11-10T21:24:11.047Z,485.36
2022-11-10T21:26:43.185Z,483.30
2022-11-10T21:29:09.731Z,468.80
2022-11-10T21:31:38.851Z,458.89
2022-11-10T21:34:03.956Z,435.90
2022-11-10T21:36:30.274Z,450.38
2022-11-10T21:38:54.458Z,456.75
2022-11-10T21:41:18.904Z,457.14
2022-11-10T21:43:46.757Z,449.00
2022-11-10T21:46:11.738Z,428.97
2022-11-10T21:48:35.981Z,414.38
2022-11-10T21:51:04.102Z,428.64
2022-11-10T21:53:36.343Z,413.12
2022-11-10T21:56:02.770Z,424.84
2022-11-10T21:58:29.773Z,388.36
2022-11-10T22:01:04.835Z,357.49
2022-11-10T22:03:31.458Z,329.74
2022-11-10T22:05:55.650Z,321.71
2022-11-10T22:08:22.321Z,308.99
2022-11-10T22:11:00.099Z,313.53
2022-11-10T22:13:37.137Z,298.18
2022-11-10T22:16:24.368Z,306.88
2022-11-10T22:18:49.852Z,291.52
2022-11-10T22:21:16.088Z,287.19
2022-11-10T22:23:56.516Z,283.93
2022-11-10T22:26:22.808Z,287.12
2022-11-10T22:28:48.540Z,281.92
2022-11-10T22:31:16.144Z,287.60
2022-11-10T22:33:44.548Z,284.59
2022-11-10T22:36:15.448Z,266.25
2022-11-10T22:38:45.197Z,261.87
2022-11-10T22:41:29.048Z,254.63
2022-11-10T22:44:08.171Z,244.84
2022-11-10T22:46:39.633Z,232.17
2022-11-10T22:49:04.651Z,234.29
2022-11-10T22:51:32.729Z,246.93
2022-11-10T22:53:57.794Z,237.96
2022-11-10T22:56:23.745Z,242.38
2022-11-10T22:58:48.543Z,236.17
2022-11-10T23:01:15.711Z,248.52
2022-11-10T23:03:44.246Z,254.65
2022-11-10T23:06:09.565Z,269.22
2022-11-10T23:08:35.994Z,257.97
2022-11-10T23:11:02.585Z,260.95
2022-11-10T23:13:26.667Z,277.59
2022-11-10T23:15:54.449Z,297.01
2022-11-10T23:18:19.109Z,304.96
2022-11-10T23:20:46.429Z,311.03
2022-11-10T23:23:11.793Z,314.00
2022-11-10T23:25:38.482Z,328.24
2022-11-10T23:28:02.859Z,349.04
2022-11-10T23:30:28.149Z,363.83
2022-11-10T23:32:52.796Z,374.07
2022-11-10T23:35:17.107Z,379.78
2022-11-10T23:37:45.011Z,380.73
2022-11-10T23:40:12.294Z,354.50
2022-11-10T23:42:36.549Z,345.89
2022-11-10T23:45:02.000Z,339.30
2022-11-10T23:47:28.788Z,327.47
2022-11-10T23:49:52.959Z,316.43
2022-11-10T23:52:19.516Z,293.12
2022-11-10T23:54:46.677Z,275.88
2022-11-10T23:57:11.408Z,261.75
2022-11-10T23:59:36.548Z,250.36
